Etusivu
METAR-TAF:

METAR-TAF

Lentoasemat :

Kalmarin lentoasema

Kalmar, Ruotsi

Leveyspiiri: 56-44N, Pituuspiiri: 016-18E, korkeus merenpinnasta: 16 m

Tämänhetkinen sää

Tämä raportti tehtiin 22 minuuttia sitten, kello 04.20 UTC
Tuuli 3 kn etelästä
Lämpötila 15°C
Kosteus 82%
Ilmanpaine 1011 hPa
Näkyvyys 10 km tai enemmän

METAR: ESMQ 220420Z AUTO 17003KT 9999 NCD 15/12 Q1011

Aika: 06:42 (04:42 UTC)

Sääennuste

Tämä raportti tehtiin 20 tuntia ja 12 minuuttia sitten, kello 08.30 UTC
Ennuste voimassa 21. päivästä klo 09 UTC - 21. päivään klo 12 UTC
Tuuli 7 kn lännestä/luoteesta
Näkyvyys 10 km tai enemmän
ei pilviä alle 1500 m:ssä eikä cumulonimbus-pilviä
Tulossa
21. päivästä klo 10 UTC - 21. päivään klo 12 UTC
Tuuli 10 kn etelästä

TAF: ESMQ 210830Z 2109/2112 30007KT CAVOK BECMG 2110/2112 17010KT

Säähavainnot ja -ennusteet yli 4000 lentoasemalta (METAR- ja TAF-raportit).

Käytössä olevat sääasemat on merkitty karttaan keltaisilla ja punaisilla pisteillä.

Aseta hiiri pisteen päälle nähdäksesi sääaseman nimen.

Klikkaa sitten nähdäksesi säähavainnot ja -ennusteet.

Kartan vaihtaminen: klikkaa mustalla rastilla varustettuja vihreitä pisteitä, niin voit zoomata sisään; viivalla varustettua vihreää pistettä, niin voit zoomata ulos tai vihreitä nuolia, niin pääset viereisille kartoille.


METAR-TAF: